createdAt,value
2023-05-17T00:02:15.591Z,13.60
2023-05-17T00:07:17.464Z,12.30
2023-05-17T00:12:19.245Z,14.50
2023-05-17T00:17:21.079Z,15.40
2023-05-17T00:22:22.741Z,14.10
2023-05-17T00:27:24.399Z,12.90
2023-05-17T00:32:26.201Z,15.70
2023-05-17T00:37:27.924Z,19.70
2023-05-17T00:42:29.568Z,13.70
2023-05-17T00:47:31.332Z,16.40
2023-05-17T00:52:33.273Z,18.40
2023-05-17T00:57:35.836Z,18.00
2023-05-17T01:02:37.843Z,16.60
2023-05-17T01:07:40.179Z,12.90
2023-05-17T01:13:01.298Z,13.80
2023-05-17T01:18:35.234Z,14.30
2023-05-17T01:23:59.286Z,10.70
2023-05-17T01:29:02.635Z,11.10
2023-05-17T01:34:08.832Z,14.30
2023-05-17T01:39:10.531Z,12.20
2023-05-17T01:44:18.331Z,14.70
2023-05-17T01:49:30.342Z,15.40
2023-05-17T01:54:39.273Z,13.20
2023-05-17T01:59:44.167Z,11.30
2023-05-17T02:04:46.177Z,10.80
2023-05-17T02:09:47.949Z,9.40
2023-05-17T02:14:49.670Z,11.30
2023-05-17T02:19:52.119Z,9.00
2023-05-17T02:24:53.790Z,8.60
2023-05-17T02:29:55.569Z,8.60
2023-05-17T02:34:57.288Z,7.50
2023-05-17T02:39:59.072Z,7.50
2023-05-17T02:45:01.208Z,10.90
2023-05-17T02:50:05.569Z,6.80
2023-05-17T03:00:09.830Z,7.70
2023-05-17T03:05:15.731Z,10.10
2023-05-17T03:10:22.730Z,10.70
2023-05-17T03:15:26.719Z,8.80
2023-05-17T03:20:28.695Z,8.20
2023-05-17T03:25:31.238Z,10.80
2023-05-17T03:30:33.137Z,12.00
2023-05-17T03:40:37.202Z,13.70
2023-05-17T03:45:38.903Z,11.10
2023-05-17T03:50:41.439Z,13.00
2023-05-17T03:55:43.786Z,11.70
2023-05-17T04:00:45.493Z,15.00
2023-05-17T04:05:48.674Z,12.50
2023-05-17T04:10:50.426Z,12.40
2023-05-17T04:15:52.124Z,16.10
2023-05-17T04:20:55.594Z,13.00
2023-05-17T04:25:58.137Z,10.20
2023-05-17T04:31:00.196Z,11.90
2023-05-17T04:36:02.655Z,13.50
2023-05-17T04:41:06.644Z,13.10
2023-05-17T04:46:10.340Z,14.50
2023-05-17T04:51:12.983Z,14.10
2023-05-17T04:56:15.094Z,13.50
2023-05-17T05:01:17.396Z,14.40
2023-05-17T05:06:19.898Z,14.10
2023-05-17T05:11:21.695Z,12.40
2023-05-17T05:21:26.820Z,16.10
2023-05-17T05:26:29.209Z,12.00
2023-05-17T05:31:31.861Z,13.70
2023-05-17T05:36:35.111Z,11.80
2023-05-17T05:41:36.890Z,10.60
2023-05-17T05:46:38.826Z,12.30
2023-05-17T05:51:41.048Z,12.80
2023-05-17T05:56:43.072Z,11.60
2023-05-17T06:01:46.332Z,12.10
2023-05-17T06:06:48.523Z,15.10
2023-05-17T06:11:53.624Z,11.10
2023-05-17T06:16:55.396Z,14.10
2023-05-17T06:21:57.114Z,14.10
2023-05-17T06:26:58.952Z,14.00
2023-05-17T06:32:00.816Z,14.60
2023-05-17T06:37:03.570Z,12.10
2023-05-17T06:47:09.144Z,13.50
2023-05-17T06:52:10.832Z,16.10
2023-05-17T06:57:12.666Z,15.50
2023-05-17T07:02:14.360Z,15.70
2023-05-17T07:07:16.224Z,17.00
2023-05-17T07:12:18.135Z,17.60
2023-05-17T07:17:19.831Z,16.30
2023-05-17T07:22:21.560Z,14.80
2023-05-17T07:27:23.324Z,12.30
2023-05-17T07:32:25.061Z,13.20
2023-05-17T07:37:26.978Z,13.30
2023-05-17T07:42:28.653Z,13.00
2023-05-17T07:47:31.002Z,18.40
2023-05-17T07:52:32.892Z,13.60
2023-05-17T07:57:34.725Z,12.30
2023-05-17T08:02:36.520Z,15.10
2023-05-17T08:07:38.307Z,13.40
2023-05-17T08:12:40.042Z,12.00
2023-05-17T08:17:41.904Z,13.10
2023-05-17T08:22:43.708Z,11.30
2023-05-17T08:27:45.515Z,10.60
2023-05-17T08:32:48.159Z,11.10
2023-05-17T08:37:50.203Z,12.80
2023-05-17T08:42:52.671Z,11.90
2023-05-17T08:52:58.547Z,11.80
2023-05-17T08:58:01.235Z,11.40
2023-05-17T09:08:05.855Z,12.60
2023-05-17T09:13:07.959Z,8.70
2023-05-17T09:18:13.992Z,9.70
2023-05-17T09:23:21.060Z,9.90
2023-05-17T09:28:23.543Z,9.80
2023-05-17T09:38:30.016Z,11.80
2023-05-17T09:43:31.938Z,11.60
2023-05-17T09:48:34.116Z,10.80
2023-05-17T09:53:40.777Z,12.70
2023-05-17T09:58:42.627Z,11.40
2023-05-17T10:03:44.576Z,13.00
2023-05-17T10:08:51.781Z,10.70
2023-05-17T10:14:05.248Z,11.80
2023-05-17T10:19:07.815Z,10.80
2023-05-17T10:24:11.297Z,11.20
2023-05-17T10:29:13.570Z,10.50
2023-05-17T10:34:17.299Z,10.50
2023-05-17T10:39:19.296Z,11.30
2023-05-17T10:44:22.187Z,7.80
2023-05-17T10:49:30.218Z,7.80
2023-05-17T10:54:36.905Z,11.20
2023-05-17T10:59:58.003Z,7.90
2023-05-17T11:05:00.684Z,9.20
2023-05-17T11:10:11.714Z,11.00
2023-05-17T11:15:17.483Z,12.00
2023-05-17T11:20:25.900Z,9.80
2023-05-17T11:25:30.563Z,9.30
2023-05-17T11:30:33.130Z,10.90
2023-05-17T11:35:38.176Z,11.00
2023-05-17T11:40:40.900Z,11.80
2023-05-17T11:45:53.912Z,10.70
2023-05-17T11:50:56.845Z,7.20
2023-05-17T11:56:05.672Z,10.00
2023-05-17T12:01:09.074Z,12.80
2023-05-17T12:06:16.180Z,9.90
2023-05-17T12:11:18.854Z,10.40
2023-05-17T12:16:24.973Z,8.40
2023-05-17T12:21:26.816Z,12.10
2023-05-17T12:26:28.693Z,14.00
2023-05-17T12:31:36.622Z,9.60
2023-05-17T12:36:38.803Z,9.70
2023-05-17T12:41:42.040Z,10.30
2023-05-17T12:46:45.040Z,9.60
2023-05-17T12:51:47.731Z,14.70
2023-05-17T12:56:49.715Z,10.00
2023-05-17T13:01:56.925Z,10.80
2023-05-17T13:07:00.944Z,10.80
2023-05-17T13:12:07.116Z,8.30
2023-05-17T13:17:22.319Z,11.70
2023-05-17T13:22:25.198Z,9.10
2023-05-17T13:27:28.152Z,13.00
2023-05-17T13:32:29.896Z,15.60
2023-05-17T13:37:32.003Z,14.90
2023-05-17T13:42:33.936Z,11.20
2023-05-17T13:47:36.155Z,12.50
2023-05-17T13:52:37.901Z,12.10
2023-05-17T13:57:39.649Z,13.50
2023-05-17T14:02:41.745Z,15.00
2023-05-17T14:07:44.419Z,17.70
2023-05-17T14:12:47.025Z,14.20
2023-05-17T14:17:49.872Z,11.90
2023-05-17T14:22:51.850Z,10.70
2023-05-17T14:27:53.905Z,12.40
2023-05-17T14:32:55.795Z,13.80
2023-05-17T14:37:57.639Z,11.10
2023-05-17T14:42:59.429Z,14.30
2023-05-17T14:48:01.227Z,17.80
2023-05-17T14:53:03.123Z,14.10
2023-05-17T14:58:04.968Z,15.20
2023-05-17T15:03:06.729Z,14.40
2023-05-17T15:08:08.820Z,17.90
2023-05-17T15:13:10.583Z,16.50
2023-05-17T15:18:13.792Z,20.80
2023-05-17T15:23:16.150Z,15.30
2023-05-17T15:33:22.185Z,17.00
2023-05-17T15:43:25.774Z,15.00
2023-05-17T15:48:30.350Z,19.00
2023-05-17T15:53:33.318Z,18.70
2023-05-17T15:58:35.572Z,17.10
2023-05-17T16:03:37.494Z,21.00
2023-05-17T16:08:39.232Z,16.60
2023-05-17T16:13:41.151Z,17.80
2023-05-17T16:18:42.939Z,17.70
2023-05-17T16:23:44.844Z,15.60
2023-05-17T16:28:46.689Z,21.50
2023-05-17T16:33:48.440Z,25.50
2023-05-17T16:38:51.664Z,24.60
2023-05-17T16:43:53.375Z,21.80
2023-05-17T16:48:55.564Z,17.40
2023-05-17T16:53:57.356Z,25.20
2023-05-17T16:58:59.134Z,21.00
2023-05-17T17:04:01.825Z,19.60
2023-05-17T17:09:08.009Z,21.10
2023-05-17T17:14:11.173Z,18.10
2023-05-17T17:19:12.916Z,23.20
2023-05-17T17:24:14.850Z,25.20
2023-05-17T17:29:16.794Z,19.30
2023-05-17T17:34:18.454Z,17.30
2023-05-17T17:39:20.089Z,19.20
2023-05-17T17:44:21.987Z,16.00
2023-05-17T17:49:23.635Z,16.90
2023-05-17T17:54:25.553Z,21.00
2023-05-17T17:59:27.214Z,27.40
2023-05-17T18:04:28.954Z,19.60
2023-05-17T18:09:30.930Z,19.80
2023-05-17T18:14:33.823Z,23.50
2023-05-17T18:19:35.769Z,21.10
2023-05-17T18:24:37.480Z,20.60
2023-05-17T18:29:42.739Z,21.80
2023-05-17T18:34:44.525Z,20.30
2023-05-17T18:39:46.234Z,20.50
2023-05-17T18:44:48.395Z,20.20
2023-05-17T18:49:51.914Z,17.60
2023-05-17T18:54:54.639Z,17.00
2023-05-17T18:59:56.334Z,21.10
2023-05-17T19:04:58.015Z,17.80
2023-05-17T19:09:59.854Z,21.80
2023-05-17T19:15:03.086Z,23.70
2023-05-17T19:20:05.374Z,18.90
2023-05-17T19:25:07.776Z,22.00
2023-05-17T19:35:11.686Z,18.90
2023-05-17T19:40:15.225Z,18.00
2023-05-17T19:45:18.042Z,18.60
2023-05-17T19:50:20.121Z,16.10
2023-05-17T19:55:22.989Z,17.70
2023-05-17T20:00:25.374Z,15.60
2023-05-17T20:05:27.281Z,17.50
2023-05-17T20:10:32.676Z,17.70
2023-05-17T20:15:34.732Z,19.90
2023-05-17T20:20:36.652Z,20.60
2023-05-17T20:25:39.831Z,17.50
2023-05-17T20:30:44.311Z,17.10
2023-05-17T20:35:46.277Z,16.50
2023-05-17T20:40:48.161Z,20.50
2023-05-17T20:45:53.805Z,23.50
2023-05-17T20:50:55.588Z,19.90
2023-05-17T20:55:58.149Z,16.80
2023-05-17T21:06:05.192Z,21.40
2023-05-17T21:11:08.738Z,20.80
2023-05-17T21:16:10.617Z,19.50
2023-05-17T21:21:12.836Z,17.40
2023-05-17T21:26:14.654Z,22.60
2023-05-17T21:31:16.662Z,19.70
2023-05-17T21:36:18.521Z,18.90
2023-05-17T21:41:21.581Z,21.80
2023-05-17T21:46:29.445Z,16.30
2023-05-17T21:51:32.378Z,16.30
2023-05-17T21:56:34.091Z,23.10
2023-05-17T22:01:35.835Z,18.70
2023-05-17T22:06:37.783Z,15.30
2023-05-17T22:11:40.644Z,16.20
2023-05-17T22:16:42.424Z,19.40
2023-05-17T22:21:44.104Z,18.70
2023-05-17T22:26:45.960Z,19.00
2023-05-17T22:31:50.172Z,15.10
2023-05-17T22:36:51.902Z,18.80
2023-05-17T22:41:53.563Z,19.40
2023-05-17T22:46:57.725Z,16.10
2023-05-17T22:52:07.533Z,22.80
2023-05-17T22:57:09.676Z,18.30
2023-05-17T23:02:14.109Z,22.20
2023-05-17T23:07:16.389Z,18.30
2023-05-17T23:12:27.451Z,24.00
2023-05-17T23:17:32.596Z,16.20
2023-05-17T23:22:34.733Z,20.30
2023-05-17T23:27:36.568Z,16.00
2023-05-17T23:32:38.373Z,23.50
2023-05-17T23:37:41.414Z,19.10
2023-05-17T23:43:04.422Z,21.00
2023-05-17T23:48:26.230Z,18.40
2023-05-17T23:53:28.209Z,14.70
2023-05-17T23:58:29.953Z,17.00
